sensor_id;sensor_type;location;lat;lon;timestamp;pressure;altitude;pressure_sealevel;temperature;humidity
47220;BME280;32961;51.936;4.788;2023-04-21T00:01:03;101563.47;;;8.13;91.83
47220;BME280;32961;51.936;4.788;2023-04-21T00:03:34;101557.31;;;8.11;92.00
47220;BME280;32961;51.936;4.788;2023-04-21T00:06:04;101568.16;;;8.11;91.73
47220;BME280;32961;51.936;4.788;2023-04-21T00:08:32;101579.94;;;8.10;92.16
47220;BME280;32961;51.936;4.788;2023-04-21T00:11:05;101581.34;;;8.02;92.82
47220;BME280;32961;51.936;4.788;2023-04-21T00:13:33;101586.66;;;8.04;93.84
47220;BME280;32961;51.936;4.788;2023-04-21T00:16:03;101573.78;;;7.95;94.10
47220;BME280;32961;51.936;4.788;2023-04-21T00:18:31;101571.50;;;8.01;93.81
47220;BME280;32961;51.936;4.788;2023-04-21T00:20:59;101576.38;;;7.96;95.17
47220;BME280;32961;51.936;4.788;2023-04-21T00:23:27;101576.69;;;7.92;96.28
47220;BME280;32961;51.936;4.788;2023-04-21T00:25:55;101576.50;;;7.95;95.86
47220;BME280;32961;51.936;4.788;2023-04-21T00:28:22;101574.75;;;7.94;96.05
47220;BME280;32961;51.936;4.788;2023-04-21T00:30:50;101575.72;;;7.93;95.60
47220;BME280;32961;51.936;4.788;2023-04-21T00:33:21;101570.44;;;7.91;96.14
47220;BME280;32961;51.936;4.788;2023-04-21T00:35:48;101554.72;;;7.96;95.92
47220;BME280;32961;51.936;4.788;2023-04-21T00:38:17;101546.09;;;7.91;96.82
47220;BME280;32961;51.936;4.788;2023-04-21T00:40:44;101542.09;;;7.84;97.48
47220;BME280;32961;51.936;4.788;2023-04-21T00:43:12;101533.31;;;7.80;98.04
47220;BME280;32961;51.936;4.788;2023-04-21T00:45:40;101525.41;;;7.77;98.83
47220;BME280;32961;51.936;4.788;2023-04-21T00:48:08;101532.34;;;7.81;98.55
47220;BME280;32961;51.936;4.788;2023-04-21T00:50:38;101529.19;;;7.87;97.93
47220;BME280;32961;51.936;4.788;2023-04-21T00:53:07;101525.19;;;7.80;98.66
47220;BME280;32961;51.936;4.788;2023-04-21T00:55:35;101524.22;;;7.81;98.69
47220;BME280;32961;51.936;4.788;2023-04-21T00:58:03;101513.84;;;7.75;99.19
47220;BME280;32961;51.936;4.788;2023-04-21T01:00:32;101515.59;;;7.76;99.68
47220;BME280;32961;51.936;4.788;2023-04-21T01:03:00;101519.78;;;7.80;100.00
47220;BME280;32961;51.936;4.788;2023-04-21T01:05:30;101530.38;;;7.83;99.84
47220;BME280;32961;51.936;4.788;2023-04-21T01:08:14;101525.59;;;7.87;99.15
47220;BME280;32961;51.936;4.788;2023-04-21T01:10:41;101523.78;;;7.87;99.38
47220;BME280;32961;51.936;4.788;2023-04-21T01:13:09;101530.94;;;7.89;99.32
47220;BME280;32961;51.936;4.788;2023-04-21T01:15:37;101519.22;;;7.88;99.56
47220;BME280;32961;51.936;4.788;2023-04-21T01:18:05;101522.91;;;7.87;99.80
47220;BME280;32961;51.936;4.788;2023-04-21T01:20:41;101521.28;;;7.84;100.00
47220;BME280;32961;51.936;4.788;2023-04-21T01:23:11;101528.56;;;7.84;100.00
47220;BME280;32961;51.936;4.788;2023-04-21T01:25:39;101523.78;;;7.75;100.00
47220;BME280;32961;51.936;4.788;2023-04-21T01:28:07;101518.38;;;7.75;100.00
47220;BME280;32961;51.936;4.788;2023-04-21T01:30:34;101521.41;;;7.70;100.00
47220;BME280;32961;51.936;4.788;2023-04-21T01:33:04;101512.13;;;7.74;100.00
47220;BME280;32961;51.936;4.788;2023-04-21T01:35:31;101505.81;;;7.74;100.00
47220;BME280;32961;51.936;4.788;2023-04-21T01:37:59;101496.31;;;7.68;100.00
47220;BME280;32961;51.936;4.788;2023-04-21T01:40:29;101506.81;;;7.73;100.00
47220;BME280;32961;51.936;4.788;2023-04-21T01:42:56;101511.56;;;7.82;100.00
47220;BME280;32961;51.936;4.788;2023-04-21T01:45:25;101502.06;;;7.76;100.00
47220;BME280;32961;51.936;4.788;2023-04-21T01:47:52;101492.84;;;7.79;100.00
47220;BME280;32961;51.936;4.788;2023-04-21T01:50:20;101494.03;;;7.75;100.00
47220;BME280;32961;51.936;4.788;2023-04-21T01:52:48;101496.44;;;7.66;100.00
47220;BME280;32961;51.936;4.788;2023-04-21T01:55:16;101489.94;;;7.69;100.00
47220;BME280;32961;51.936;4.788;2023-04-21T01:57:46;101484.81;;;7.77;100.00
47220;BME280;32961;51.936;4.788;2023-04-21T02:00:14;101476.19;;;7.72;100.00
47220;BME280;32961;51.936;4.788;2023-04-21T02:02:42;101476.63;;;7.66;100.00
47220;BME280;32961;51.936;4.788;2023-04-21T02:05:10;101484.28;;;7.72;100.00
47220;BME280;32961;51.936;4.788;2023-04-21T02:07:38;101480.75;;;7.71;100.00
47220;BME280;32961;51.936;4.788;2023-04-21T02:10:06;101484.81;;;7.77;100.00
47220;BME280;32961;51.936;4.788;2023-04-21T02:12:34;101471.75;;;7.71;100.00
47220;BME280;32961;51.936;4.788;2023-04-21T02:15:04;101472.50;;;7.73;100.00
47220;BME280;32961;51.936;4.788;2023-04-21T02:17:32;101482.56;;;7.71;100.00
47220;BME280;32961;51.936;4.788;2023-04-21T02:20:00;101471.00;;;7.69;100.00
47220;BME280;32961;51.936;4.788;2023-04-21T02:22:29;101472.63;;;7.71;100.00
47220;BME280;32961;51.936;4.788;2023-04-21T02:24:57;101462.53;;;7.74;100.00
47220;BME280;32961;51.936;4.788;2023-04-21T02:27:25;101461.69;;;7.73;100.00
47220;BME280;32961;51.936;4.788;2023-04-21T02:29:53;101454.41;;;7.74;100.00
47220;BME280;32961;51.936;4.788;2023-04-21T02:32:22;101461.69;;;7.73;100.00
47220;BME280;32961;51.936;4.788;2023-04-21T02:34:51;101456.47;;;7.70;100.00
47220;BME280;32961;51.936;4.788;2023-04-21T02:37:19;101452.81;;;7.71;100.00
47220;BME280;32961;51.936;4.788;2023-04-21T02:39:47;101459.84;;;7.74;100.00
47220;BME280;32961;51.936;4.788;2023-04-21T02:42:15;101455.31;;;7.74;100.00
47220;BME280;32961;51.936;4.788;2023-04-21T02:44:43;101461.56;;;7.75;100.00
47220;BME280;32961;51.936;4.788;2023-04-21T02:47:10;101450.88;;;7.73;100.00
47220;BME280;32961;51.936;4.788;2023-04-21T02:49:41;101433.34;;;7.79;100.00
47220;BME280;32961;51.936;4.788;2023-04-21T02:52:09;101429.00;;;7.76;100.00
47220;BME280;32961;51.936;4.788;2023-04-21T02:54:37;101427.81;;;7.80;100.00
47220;BME280;32961;51.936;4.788;2023-04-21T02:57:04;101424.47;;;7.77;100.00
47220;BME280;32961;51.936;4.788;2023-04-21T02:59:32;101436.25;;;7.76;100.00
47220;BME280;32961;51.936;4.788;2023-04-21T03:02:00;101445.25;;;7.76;100.00
47220;BME280;32961;51.936;4.788;2023-04-21T03:04:28;101450.75;;;7.75;100.00
47220;BME280;32961;51.936;4.788;2023-04-21T03:06:59;101449.66;;;7.77;100.00
47220;BME280;32961;51.936;4.788;2023-04-21T03:09:27;101437.22;;;7.75;100.00
47220;BME280;32961;51.936;4.788;2023-04-21T03:11:55;101445.84;;;7.80;100.00
47220;BME280;32961;51.936;4.788;2023-04-21T03:14:23;101432.44;;;7.78;100.00
47220;BME280;32961;51.936;4.788;2023-04-21T03:16:50;101425.31;;;7.77;100.00
47220;BME280;32961;51.936;4.788;2023-04-21T03:19:18;101425.88;;;7.82;100.00
47220;BME280;32961;51.936;4.788;2023-04-21T03:21:46;101422.91;;;7.85;100.00
47220;BME280;32961;51.936;4.788;2023-04-21T03:24:16;101420.53;;;7.81;100.00
47220;BME280;32961;51.936;4.788;2023-04-21T03:26:43;101416.75;;;7.83;100.00
47220;BME280;32961;51.936;4.788;2023-04-21T03:29:11;101415.03;;;7.82;100.00
47220;BME280;32961;51.936;4.788;2023-04-21T03:31:39;101412.78;;;7.76;100.00
47220;BME280;32961;51.936;4.788;2023-04-21T03:34:07;101411.91;;;7.76;100.00
47220;BME280;32961;51.936;4.788;2023-04-21T03:36:34;101411.06;;;7.75;100.00
47220;BME280;32961;51.936;4.788;2023-04-21T03:39:02;101401.97;;;7.76;100.00
47220;BME280;32961;51.936;4.788;2023-04-21T03:41:46;101396.00;;;7.71;100.00
47220;BME280;32961;51.936;4.788;2023-04-21T03:44:14;101402.19;;;7.73;100.00
47220;BME280;32961;51.936;4.788;2023-04-21T03:46:42;101402.19;;;7.73;100.00
47220;BME280;32961;51.936;4.788;2023-04-21T03:49:10;101408.44;;;7.74;100.00
47220;BME280;32961;51.936;4.788;2023-04-21T03:51:37;101392.19;;;7.74;100.00
47220;BME280;32961;51.936;4.788;2023-04-21T03:54:05;101385.31;;;7.69;100.00
47220;BME280;32961;51.936;4.788;2023-04-21T03:56:33;101383.25;;;7.73;100.00
47220;BME280;32961;51.936;4.788;2023-04-21T03:59:03;101378.91;;;7.70;100.00
47220;BME280;32961;51.936;4.788;2023-04-21T04:01:32;101392.44;;;7.70;100.00
47220;BME280;32961;51.936;4.788;2023-04-21T04:04:00;101390.06;;;7.66;100.00
47220;BME280;32961;51.936;4.788;2023-04-21T04:06:28;101385.53;;;7.66;100.00
47220;BME280;32961;51.936;4.788;2023-04-21T04:08:57;101388.84;;;7.70;100.00
47220;BME280;32961;51.936;4.788;2023-04-21T04:11:28;101378.16;;;7.68;100.00
47220;BME280;32961;51.936;4.788;2023-04-21T04:13:55;101390.84;;;7.68;100.00
47220;BME280;32961;51.936;4.788;2023-04-21T04:16:25;101389.94;;;7.67;100.00
47220;BME280;32961;51.936;4.788;2023-04-21T04:18:54;101388.78;;;7.71;100.00
47220;BME280;32961;51.936;4.788;2023-04-21T04:21:22;101388.84;;;7.70;100.00
47220;BME280;32961;51.936;4.788;2023-04-21T04:23:50;101389.88;;;7.69;100.00
47220;BME280;32961;51.936;4.788;2023-04-21T04:26:18;101382.72;;;7.68;100.00
47220;BME280;32961;51.936;4.788;2023-04-21T04:28:48;101403.16;;;7.72;100.00
47220;BME280;32961;51.936;4.788;2023-04-21T04:31:16;101389.63;;;7.72;100.00
47220;BME280;32961;51.936;4.788;2023-04-21T04:33:45;101381.16;;;7.77;100.00
47220;BME280;32961;51.936;4.788;2023-04-21T04:36:13;101393.28;;;7.71;100.00
47220;BME280;32961;51.936;4.788;2023-04-21T04:38:41;101387.03;;;7.70;100.00
47220;BME280;32961;51.936;4.788;2023-04-21T04:41:08;101375.78;;;7.64;100.00
47220;BME280;32961;51.936;4.788;2023-04-21T04:43:38;101378.03;;;7.70;100.00
47220;BME280;32961;51.936;4.788;2023-04-21T04:46:06;101381.63;;;7.70;100.00
47220;BME280;32961;51.936;4.788;2023-04-21T04:48:34;101384.00;;;7.75;100.00
47220;BME280;32961;51.936;4.788;2023-04-21T04:51:04;101382.72;;;7.68;100.00
47220;BME280;32961;51.936;4.788;2023-04-21T04:53:32;101391.47;;;7.71;100.00
47220;BME280;32961;51.936;4.788;2023-04-21T04:56:00;101400.22;;;7.75;100.00
47220;BME280;32961;51.936;4.788;2023-04-21T04:58:28;101399.34;;;7.75;100.00
47220;BME280;32961;51.936;4.788;2023-04-21T05:00:56;101392.84;;;7.77;100.00
47220;BME280;32961;51.936;4.788;2023-04-21T05:03:24;101399.25;;;7.76;100.00
47220;BME280;32961;51.936;4.788;2023-04-21T05:05:55;101402.69;;;7.78;100.00
47220;BME280;32961;51.936;4.788;2023-04-21T05:08:33;101366.41;;;7.57;100.00
47220;BME280;32961;51.936;4.788;2023-04-21T05:11:01;101401.97;;;7.76;100.00
47220;BME280;32961;51.936;4.788;2023-04-21T05:13:29;101402.56;;;7.80;100.00
47220;BME280;32961;51.936;4.788;2023-04-21T05:15:57;101392.63;;;7.80;100.00
47220;BME280;32961;51.936;4.788;2023-04-21T05:18:25;101390.78;;;7.81;100.00
47220;BME280;32961;51.936;4.788;2023-04-21T05:20:52;101384.28;;;7.83;100.00
47220;BME280;32961;51.936;4.788;2023-04-21T05:23:20;101398.69;;;7.84;100.00
47220;BME280;32961;51.936;4.788;2023-04-21T05:25:50;101387.28;;;7.92;100.00
47220;BME280;32961;51.936;4.788;2023-04-21T05:28:18;101404.75;;;7.87;100.00
47220;BME280;32961;51.936;4.788;2023-04-21T05:30:46;101403.13;;;7.85;100.00
47220;BME280;32961;51.936;4.788;2023-04-21T05:33:16;101410.34;;;7.84;100.00
47220;BME280;32961;51.936;4.788;2023-04-21T05:35:44;101406.22;;;7.92;100.00
47220;BME280;32961;51.936;4.788;2023-04-21T05:38:12;101412.53;;;7.92;100.00
47220;BME280;32961;51.936;4.788;2023-04-21T05:40:40;101407.84;;;7.94;100.00
47220;BME280;32961;51.936;4.788;2023-04-21T05:43:09;101414.84;;;7.97;100.00
47220;BME280;32961;51.936;4.788;2023-04-21T05:45:38;101411.06;;;7.99;100.00
47220;BME280;32961;51.936;4.788;2023-04-21T05:48:09;101418.00;;;8.03;100.00
47220;BME280;32961;51.936;4.788;2023-04-21T05:50:39;101425.22;;;8.03;100.00
47220;BME280;32961;51.936;4.788;2023-04-21T05:53:07;101411.81;;;8.01;100.00
47220;BME280;32961;51.936;4.788;2023-04-21T05:55:34;101419.81;;;8.03;100.00
47220;BME280;32961;51.936;4.788;2023-04-21T05:58:03;101421.84;;;8.12;100.00
47220;BME280;32961;51.936;4.788;2023-04-21T06:00:32;101424.56;;;8.12;100.00
47220;BME280;32961;51.936;4.788;2023-04-21T06:03:00;101436.34;;;8.11;100.00
47220;BME280;32961;51.936;4.788;2023-04-21T06:05:29;101431.91;;;8.10;100.00
47220;BME280;32961;51.936;4.788;2023-04-21T06:07:56;101428.88;;;8.15;100.00
47220;BME280;32961;51.936;4.788;2023-04-21T06:10:24;101426.28;;;8.13;100.00
47220;BME280;32961;51.936;4.788;2023-04-21T06:12:52;101427.16;;;8.14;100.00
47220;BME280;32961;51.936;4.788;2023-04-21T06:15:20;101432.22;;;8.18;100.00
47220;BME280;32961;51.936;4.788;2023-04-21T06:17:53;101434.94;;;8.18;100.00
47220;BME280;32961;51.936;4.788;2023-04-21T06:20:21;101423.97;;;8.20;100.00
47220;BME280;32961;51.936;4.788;2023-04-21T06:22:49;101431.00;;;8.23;100.00
47220;BME280;32961;51.936;4.788;2023-04-21T06:25:17;101423.19;;;8.31;100.00
47220;BME280;32961;51.936;4.788;2023-04-21T06:27:44;101426.19;;;8.39;100.00
47220;BME280;32961;51.936;4.788;2023-04-21T06:30:13;101429.09;;;8.36;100.00
47220;BME280;32961;51.936;4.788;2023-04-21T06:32:41;101420.97;;;8.36;100.00
47220;BME280;32961;51.936;4.788;2023-04-21T06:35:13;101424.09;;;8.43;100.00
47220;BME280;32961;51.936;4.788;2023-04-21T06:37:41;101425.72;;;8.45;100.00
47220;BME280;32961;51.936;4.788;2023-04-21T06:40:09;101433.97;;;8.44;100.00
47220;BME280;32961;51.936;4.788;2023-04-21T06:42:41;101415.97;;;8.43;100.00
47220;BME280;32961;51.936;4.788;2023-04-21T06:45:09;101426.25;;;8.50;100.00
47220;BME280;32961;51.936;4.788;2023-04-21T06:47:37;101423.84;;;8.46;100.00
47220;BME280;32961;51.936;4.788;2023-04-21T06:50:06;101417.50;;;8.47;100.00
47220;BME280;32961;51.936;4.788;2023-04-21T06:52:35;101423.78;;;8.47;100.00
47220;BME280;32961;51.936;4.788;2023-04-21T06:55:04;101423.78;;;8.47;100.00
47220;BME280;32961;51.936;4.788;2023-04-21T06:57:32;101430.69;;;8.51;100.00
47220;BME280;32961;51.936;4.788;2023-04-21T07:00:00;101419.72;;;8.53;100.00
47220;BME280;32961;51.936;4.788;2023-04-21T07:02:28;101412.25;;;8.57;100.00
47220;BME280;32961;51.936;4.788;2023-04-21T07:04:55;101416.84;;;8.67;100.00
47220;BME280;32961;51.936;4.788;2023-04-21T07:07:23;101418.72;;;8.78;100.00
47220;BME280;32961;51.936;4.788;2023-04-21T07:09:52;101416.38;;;8.85;100.00
47220;BME280;32961;51.936;4.788;2023-04-21T07:12:20;101414.06;;;8.80;100.00
47220;BME280;32961;51.936;4.788;2023-04-21T07:14:48;101417.63;;;8.81;100.00
47220;BME280;32961;51.936;4.788;2023-04-21T07:17:16;101411.59;;;8.89;100.00
47220;BME280;32961;51.936;4.788;2023-04-21T07:19:44;101416.66;;;8.93;100.00
47220;BME280;32961;51.936;4.788;2023-04-21T07:22:11;101407.91;;;9.01;100.00
47220;BME280;32961;51.936;4.788;2023-04-21T07:24:39;101423.84;;;9.06;100.00
47220;BME280;32961;51.936;4.788;2023-04-21T07:27:08;101418.19;;;9.09;100.00
47220;BME280;32961;51.936;4.788;2023-04-21T07:29:36;101416.19;;;9.11;100.00
47220;BME280;32961;51.936;4.788;2023-04-21T07:32:04;101412.91;;;9.19;100.00
47220;BME280;32961;51.936;4.788;2023-04-21T07:34:32;101417.09;;;9.23;100.00
47220;BME280;32961;51.936;4.788;2023-04-21T07:37:00;101411.03;;;9.30;100.00
47220;BME280;32961;51.936;4.788;2023-04-21T07:39:27;101413.66;;;9.43;100.00
47220;BME280;32961;51.936;4.788;2023-04-21T07:41:55;101411.31;;;9.61;100.00
47220;BME280;32961;51.936;4.788;2023-04-21T07:44:24;101406.97;;;9.70;100.00
47220;BME280;32961;51.936;4.788;2023-04-21T07:46:54;101409.06;;;9.78;100.00
47220;BME280;32961;51.936;4.788;2023-04-21T07:49:22;101410.16;;;9.98;100.00
47220;BME280;32961;51.936;4.788;2023-04-21T07:51:50;101419.59;;;10.15;100.00
47220;BME280;32961;51.936;4.788;2023-04-21T07:54:17;101418.97;;;10.23;100.00
47220;BME280;32961;51.936;4.788;2023-04-21T07:56:45;101417.56;;;10.28;100.00
47220;BME280;32961;51.936;4.788;2023-04-21T07:59:13;101416.56;;;10.41;100.00
47220;BME280;32961;51.936;4.788;2023-04-21T08:01:42;101408.16;;;10.44;96.62
47220;BME280;32961;51.936;4.788;2023-04-21T08:04:10;101412.34;;;10.48;95.51
47220;BME280;32961;51.936;4.788;2023-04-21T08:06:38;101413.22;;;10.49;95.17
47220;BME280;32961;51.936;4.788;2023-04-21T08:09:05;101409.53;;;10.50;96.28
47220;BME280;32961;51.936;4.788;2023-04-21T08:11:33;101414.75;;;10.63;95.97
47220;BME280;32961;51.936;4.788;2023-04-21T08:14:01;101419.81;;;10.67;93.96
47220;BME280;32961;51.936;4.788;2023-04-21T08:16:29;101411.56;;;10.57;93.79
47220;BME280;32961;51.936;4.788;2023-04-21T08:18:58;101414.91;;;10.61;93.84
47220;BME280;32961;51.936;4.788;2023-04-21T08:21:26;101411.38;;;10.70;94.48
47220;BME280;32961;51.936;4.788;2023-04-21T08:23:56;101412.53;;;10.89;93.64
47220;BME280;32961;51.936;4.788;2023-04-21T08:26:24;101415.63;;;11.05;91.96
47220;BME280;32961;51.936;4.788;2023-04-21T08:28:53;101408.44;;;11.26;92.84
47220;BME280;32961;51.936;4.788;2023-04-21T08:31:21;101408.25;;;11.48;91.50
47220;BME280;32961;51.936;4.788;2023-04-21T08:33:49;101410.28;;;11.56;90.41
47220;BME280;32961;51.936;4.788;2023-04-21T08:36:29;101413.94;;;11.66;89.92
47220;BME280;32961;51.936;4.788;2023-04-21T08:38:58;101402.75;;;11.69;88.91
47220;BME280;32961;51.936;4.788;2023-04-21T08:41:26;101414.63;;;11.68;88.15
47220;BME280;32961;51.936;4.788;2023-04-21T08:43:54;101414.34;;;11.62;86.98
47220;BME280;32961;51.936;4.788;2023-04-21T08:46:22;101409.00;;;11.50;85.05
47220;BME280;32961;51.936;4.788;2023-04-21T08:48:50;101404.50;;;11.39;85.50
47220;BME280;32961;51.936;4.788;2023-04-21T08:51:22;101404.66;;;11.38;86.40
47220;BME280;32961;51.936;4.788;2023-04-21T08:53:53;101402.78;;;11.38;86.67
47220;BME280;32961;51.936;4.788;2023-04-21T08:56:23;101397.69;;;11.55;87.50
47220;BME280;32961;51.936;4.788;2023-04-21T08:58:51;101392.44;;;11.73;86.01
47220;BME280;32961;51.936;4.788;2023-04-21T09:01:19;101399.69;;;11.94;87.11
47220;BME280;32961;51.936;4.788;2023-04-21T09:03:47;101397.31;;;12.00;84.30
47220;BME280;32961;51.936;4.788;2023-04-21T09:06:15;101396.94;;;11.94;83.34
47220;BME280;32961;51.936;4.788;2023-04-21T09:08:53;101389.25;;;11.99;84.53
47220;BME280;32961;51.936;4.788;2023-04-21T09:11:22;101386.69;;;12.17;84.65
47220;BME280;32961;51.936;4.788;2023-04-21T09:13:50;101396.88;;;12.25;83.96
47220;BME280;32961;51.936;4.788;2023-04-21T09:16:20;101393.47;;;12.32;82.65
47220;BME280;32961;51.936;4.788;2023-04-21T09:18:49;101391.44;;;12.44;82.85
47220;BME280;32961;51.936;4.788;2023-04-21T09:21:18;101397.19;;;12.61;80.11
47220;BME280;32961;51.936;4.788;2023-04-21T09:23:47;101396.75;;;12.65;79.08
47220;BME280;32961;51.936;4.788;2023-04-21T09:26:18;101392.72;;;12.70;78.63
47220;BME280;32961;51.936;4.788;2023-04-21T09:28:47;101396.47;;;12.68;77.36
47220;BME280;32961;51.936;4.788;2023-04-21T09:31:18;101387.88;;;12.44;76.37
47220;BME280;32961;51.936;4.788;2023-04-21T09:33:47;101387.88;;;12.44;77.68
47220;BME280;32961;51.936;4.788;2023-04-21T09:36:19;101386.56;;;12.48;77.40
47220;BME280;32961;51.936;4.788;2023-04-21T09:38:49;101388.59;;;12.46;77.11
47220;BME280;32961;51.936;4.788;2023-04-21T09:41:39;101380.84;;;12.51;76.81
47220;BME280;32961;51.936;4.788;2023-04-21T09:44:07;101391.75;;;12.61;76.74
47220;BME280;32961;51.936;4.788;2023-04-21T09:46:35;101383.56;;;12.71;76.57
47220;BME280;32961;51.936;4.788;2023-04-21T09:49:04;101383.13;;;12.75;75.50
47220;BME280;32961;51.936;4.788;2023-04-21T09:51:32;101378.34;;;12.77;74.92
47220;BME280;32961;51.936;4.788;2023-04-21T09:54:09;101385.84;;;12.85;75.27
47220;BME280;32961;51.936;4.788;2023-04-21T09:56:58;101385.25;;;12.91;75.07
47220;BME280;32961;51.936;4.788;2023-04-21T09:59:29;101370.44;;;12.94;72.98
47220;BME280;32961;51.936;4.788;2023-04-21T10:02:00;101372.03;;;12.87;73.56
47220;BME280;32961;51.936;4.788;2023-04-21T10:04:32;101372.19;;;12.85;72.98
47220;BME280;32961;51.936;4.788;2023-04-21T10:07:02;101375.94;;;12.84;72.72
47220;BME280;32961;51.936;4.788;2023-04-21T10:09:34;101381.38;;;12.84;73.24
47220;BME280;32961;51.936;4.788;2023-04-21T10:12:06;101388.66;;;12.93;73.18
47220;BME280;32961;51.936;4.788;2023-04-21T10:14:35;101379.31;;;13.06;73.00
47220;BME280;32961;51.936;4.788;2023-04-21T10:17:04;101357.34;;;13.07;72.13
47220;BME280;32961;51.936;4.788;2023-04-21T10:19:34;101366.38;;;13.08;71.86
47220;BME280;32961;51.936;4.788;2023-04-21T10:22:06;101361.94;;;13.07;72.82
47220;BME280;32961;51.936;4.788;2023-04-21T10:24:38;101361.78;;;13.08;72.03
47220;BME280;32961;51.936;4.788;2023-04-21T10:27:10;101364.66;;;13.07;71.61
47220;BME280;32961;51.936;4.788;2023-04-21T10:29:45;101354.88;;;13.14;71.78
47220;BME280;32961;51.936;4.788;2023-04-21T10:32:46;101350.28;;;13.14;70.75
47220;BME280;32961;51.936;4.788;2023-04-21T10:35:16;101348.66;;;13.22;72.46
47220;BME280;32961;51.936;4.788;2023-04-21T10:37:49;101339.41;;;13.42;71.95
47220;BME280;32961;51.936;4.788;2023-04-21T10:40:33;101334.69;;;13.72;71.42
47220;BME280;32961;51.936;4.788;2023-04-21T10:43:41;101329.78;;;14.12;70.72
47220;BME280;32961;51.936;4.788;2023-04-21T10:46:33;101317.25;;;14.45;69.10
47220;BME280;32961;51.936;4.788;2023-04-21T10:49:06;101327.25;;;14.55;69.59
47220;BME280;32961;51.936;4.788;2023-04-21T10:52:03;101306.06;;;14.75;68.78
47220;BME280;32961;51.936;4.788;2023-04-21T10:54:41;101314.09;;;15.03;68.52
47220;BME280;32961;51.936;4.788;2023-04-21T10:57:12;101314.91;;;15.30;65.70
47220;BME280;32961;51.936;4.788;2023-04-21T10:59:43;101299.25;;;15.48;64.42
47220;BME280;32961;51.936;4.788;2023-04-21T11:02:12;101309.41;;;15.56;64.78
47220;BME280;32961;51.936;4.788;2023-04-21T11:04:41;101304.75;;;15.56;63.46
47220;BME280;32961;51.936;4.788;2023-04-21T11:07:15;101310.22;;;15.56;63.40
47220;BME280;32961;51.936;4.788;2023-04-21T11:09:45;101291.25;;;15.55;63.27
47220;BME280;32961;51.936;4.788;2023-04-21T11:12:15;101292.97;;;15.64;62.60
47220;BME280;32961;51.936;4.788;2023-04-21T11:14:46;101282.50;;;15.51;63.38
47220;BME280;32961;51.936;4.788;2023-04-21T11:17:15;101276.00;;;15.52;62.28
47220;BME280;32961;51.936;4.788;2023-04-21T11:19:44;101278.94;;;15.67;62.12
47220;BME280;32961;51.936;4.788;2023-04-21T11:22:12;101274.03;;;15.87;62.78
47220;BME280;32961;51.936;4.788;2023-04-21T11:24:44;101271.31;;;16.12;62.59
47220;BME280;32961;51.936;4.788;2023-04-21T11:27:12;101266.34;;;16.16;59.22
47220;BME280;32961;51.936;4.788;2023-04-21T11:29:41;101262.44;;;16.10;60.58
47220;BME280;32961;51.936;4.788;2023-04-21T11:32:10;101264.16;;;16.11;60.78
47220;BME280;32961;51.936;4.788;2023-04-21T11:34:39;101258.50;;;16.21;61.64
47220;BME280;32961;51.936;4.788;2023-04-21T11:37:07;101246.84;;;16.27;60.27
47220;BME280;32961;51.936;4.788;2023-04-21T11:39:39;101255.03;;;16.35;60.33
47220;BME280;32961;51.936;4.788;2023-04-21T11:42:07;101241.66;;;16.57;59.82
47220;BME280;32961;51.936;4.788;2023-04-21T11:44:38;101245.72;;;16.78;59.76
47220;BME280;32961;51.936;4.788;2023-04-21T11:47:16;101236.47;;;16.71;58.25
47220;BME280;32961;51.936;4.788;2023-04-21T11:49:45;101244.19;;;16.59;57.28
47220;BME280;32961;51.936;4.788;2023-04-21T11:52:21;101235.13;;;16.66;56.37
47220;BME280;32961;51.936;4.788;2023-04-21T11:54:53;101233.16;;;16.83;57.29
47220;BME280;32961;51.936;4.788;2023-04-21T11:57:22;101229.25;;;16.78;58.17
47220;BME280;32961;51.936;4.788;2023-04-21T11:59:51;101239.75;;;16.58;58.83
47220;BME280;32961;51.936;4.788;2023-04-21T12:02:27;101231.50;;;16.58;58.96
47220;BME280;32961;51.936;4.788;2023-04-21T12:04:57;101233.78;;;16.46;56.78
47220;BME280;32961;51.936;4.788;2023-04-21T12:07:27;101230.53;;;16.34;57.86
47220;BME280;32961;51.936;4.788;2023-04-21T12:09:56;101227.47;;;16.37;57.34
47220;BME280;32961;51.936;4.788;2023-04-21T12:12:24;101217.16;;;16.47;57.31
47220;BME280;32961;51.936;4.788;2023-04-21T12:14:52;101224.38;;;16.15;58.19
47220;BME280;32961;51.936;4.788;2023-04-21T12:17:20;101211.19;;;15.86;58.22
47220;BME280;32961;51.936;4.788;2023-04-21T12:19:49;101217.50;;;15.78;58.67
47220;BME280;32961;51.936;4.788;2023-04-21T12:22:17;101219.19;;;15.79;58.76
47220;BME280;32961;51.936;4.788;2023-04-21T12:24:45;101215.28;;;15.82;58.29
47220;BME280;32961;51.936;4.788;2023-04-21T12:27:13;101203.59;;;15.71;57.88
47220;BME280;32961;51.936;4.788;2023-04-21T12:29:41;101215.97;;;15.76;57.17
47220;BME280;32961;51.936;4.788;2023-04-21T12:32:09;101206.38;;;15.80;57.80
47220;BME280;32961;51.936;4.788;2023-04-21T12:34:37;101208.63;;;16.01;59.07
47220;BME280;32961;51.936;4.788;2023-04-21T12:37:06;101196.97;;;15.99;57.72
47220;BME280;32961;51.936;4.788;2023-04-21T12:39:34;101201.28;;;16.01;56.21
47220;BME280;32961;51.936;4.788;2023-04-21T12:42:02;101198.34;;;16.11;57.76
47220;BME280;32961;51.936;4.788;2023-04-21T12:44:30;101202.41;;;16.40;58.37
47220;BME280;32961;51.936;4.788;2023-04-21T12:46:58;101187.28;;;16.69;57.05
47220;BME280;32961;51.936;4.788;2023-04-21T12:49:25;101179.69;;;16.71;54.87
47220;BME280;32961;51.936;4.788;2023-04-21T12:51:54;101186.06;;;16.63;54.66
47220;BME280;32961;51.936;4.788;2023-04-21T12:54:23;101186.38;;;16.77;54.14
47220;BME280;32961;51.936;4.788;2023-04-21T12:56:51;101188.63;;;16.65;55.34
47220;BME280;32961;51.936;4.788;2023-04-21T12:59:19;101178.06;;;16.45;56.67
47220;BME280;32961;51.936;4.788;2023-04-21T13:01:46;101185.25;;;16.46;56.78